This is the latest recevied weather packets stored in our database for station/object PA5MB-15. If no packets are shown the sender has not sent any weather packets the latest 10 day(s).
| Time | Temp. | Humidity | Pressure | Rain* | Wind** | Luminosity | Snow |
|---|---|---|---|---|---|---|---|
| 1778157325 | 16.11° C | 49% | 1017.3 hPa | 0 mm | - | 31 W/m² | - |
| 1778157029 | 16.11° C | 49% | 1017.3 hPa | 0 mm | - | 31 W/m² | - |
| 1778156742 | 16.67° C | 49% | 1017.3 hPa | 0 mm | - | 30 W/m² | - |
| 1778156429 | 16.67° C | 47% | 1017.2 hPa | 0 mm | - | 31 W/m² | - |
| 1778156125 | 16.67° C | 49% | 1017.2 hPa | 0 mm | - | 31 W/m² | - |
| 1778155829 | 16.11° C | 51% | 1017.3 hPa | 0 mm | - | 32 W/m² | - |
| 1778155529 | 16.67° C | 50% | 1017.3 hPa | 0 mm | - | 33 W/m² | - |
| 1778155230 | 16.67° C | 49% | 1017.3 hPa | 0 mm | - | 34 W/m² | - |
| 1778154930 | 16.11° C | 49% | 1017.3 hPa | 0 mm | - | 36 W/m² | - |
| 1778154629 | 16.11° C | 50% | 1017.3 hPa | 0 mm | - | 38 W/m² | - |
| 1778154329 | 16.67° C | 49% | 1017.3 hPa | 0 mm | - | 42 W/m² | - |
| 1778154030 | 17.22° C | 45% | 1017.3 hPa | 0 mm | - | 73 W/m² | - |
| 1778153731 | 17.78° C | 46% | 1017.3 hPa | 0 mm | - | 86 W/m² | - |
| 1778153431 | 17.78° C | 49% | 1017.3 hPa | 0 mm | - | 74 W/m² | - |
| 1778153142 | 16.67° C | 49% | 1017.3 hPa | 0 mm | - | 81 W/m² | - |
| 1778152823 | 16.11° C | 50% | 1017.3 hPa | 0 mm | - | 78 W/m² | - |
| 1778152529 | 16.11° C | 52% | 1017.4 hPa | 0 mm | - | 79 W/m² | - |
| 1778152229 | 16.11° C | 54% | 1017.5 hPa | 0 mm | - | 78 W/m² | - |
| 1778151929 | 15.56° C | 56% | 1017.5 hPa | 0 mm | - | 74 W/m² | - |
| 1778151622 | 15.56° C | 57% | 1017.6 hPa | 0 mm | - | 38 W/m² | - |
| 1778151329 | 15.56° C | 56% | 1017.6 hPa | 0 mm | - | 24 W/m² | - |
| 1778151030 | 15° C | 57% | 1017.6 hPa | 0 mm | - | 68 W/m² | - |
| 1778150729 | 14.44° C | 60% | 1017.6 hPa | 0 mm | - | 59 W/m² | - |
| 1778150425 | 15° C | 59% | 1017.6 hPa | 0 mm | - | 17 W/m² | - |
| 1778150130 | 16.11° C | 56% | 1017.6 hPa | 0 mm | - | 43 W/m² | - |
* Rain latest hour (hover to see other rain measurements)
** Current wind speed in m/s (hover to see current wind gust speed)